Time;durP1;ratioP1;P1;durP2;ratioP2;P2;SDS_P1;SDS_P2;PMS_P1;PMS_P2;Temp;Humidity;BMP_temperature;BMP_pressure;BME280_temperature;BME280_humidity;BME280_pressure;Samples;Min_cycle;Max_cycle;Signal;HPM_P1;HPM_P2
2023/03/10 00:00:49;;;;;;;;;;;;;;;12.13;64.88;98979.75;5069757;28;20386;-94
2023/03/10 00:03:14;;;;;;;;;;;;;;;11.96;66.27;98982.94;5070298;28;19970;-93
2023/03/10 00:05:39;;;;;;;;;;;;;;;12.09;66.07;98983.41;5070285;28;19920;-94
2023/03/10 00:08:05;;;;;;;;;;;;;;;12.20;65.73;98988.34;5086695;28;19924;-93
2023/03/10 00:10:31;;;;;;;;;;;;;;;12.17;65.81;98996.38;5070395;28;19916;-93
2023/03/10 00:12:56;;;;;;;;;;;;;;;11.86;66.47;99007.03;5068901;28;19956;-94
2023/03/10 00:15:22;;;;;;;;;;;;;;;11.66;66.52;99011.16;5100088;28;19913;-94
2023/03/10 00:17:54;;;;;;;;;;;;;;;11.59;66.42;99012.25;5072936;28;19927;-94
2023/03/10 00:20:19;;;;;;;;;;;;;;;11.78;65.54;98997.56;5049863;28;20477;-94
2023/03/10 00:22:45;;;;;;;;;;;;;;;11.73;66.17;98999.50;5051530;28;20012;-95
2023/03/10 00:25:11;;;;;;;;;;;;;;;11.56;67.06;98992.09;5051330;28;19920;-93
2023/03/10 00:27:36;;;;;;;;;;;;;;;11.64;66.91;98987.41;5070292;28;19917;-93
2023/03/10 00:30:02;;;;;;;;;;;;;;;11.86;66.26;98986.75;5086481;28;19912;-93
2023/03/10 00:32:27;;;;;;;;;;;;;;;11.83;66.94;98985.09;5070942;28;20010;-94
2023/03/10 00:34:52;;;;;;;;;;;;;;;11.71;67.53;98984.59;5070623;28;19996;-93
2023/03/10 00:37:18;;;;;;;;;;;;;;;11.88;66.76;98990.22;5071247;28;19916;-93
2023/03/10 00:39:44;;;;;;;;;;;;;;;11.91;66.80;98997.19;5069961;28;19912;-93
2023/03/10 00:42:09;;;;;;;;;;;;;;;11.78;67.02;98986.13;5071056;28;20006;-92
2023/03/10 00:44:34;;;;;;;;;;;;;;;11.77;67.84;98989.69;5070304;28;19916;-92
2023/03/10 00:47:00;;;;;;;;;;;;;;;11.80;67.81;98982.53;5069508;28;20007;-93
2023/03/10 00:49:25;;;;;;;;;;;;;;;11.85;67.51;98990.31;5086802;28;20349;-93
2023/03/10 00:51:50;;;;;;;;;;;;;;;11.73;68.07;98994.22;5069375;28;19920;-94
2023/03/10 00:54:15;;;;;;;;;;;;;;;11.79;68.18;98998.44;5068961;28;19958;-93
2023/03/10 00:56:41;;;;;;;;;;;;;;;11.82;68.09;98993.06;5070601;28;20313;-93
2023/03/10 00:59:06;;;;;;;;;;;;;;;11.85;67.96;98994.72;5069597;28;20398;-93
2023/03/10 01:01:36;;;;;;;;;;;;;;;11.91;67.91;98999.81;5069315;28;19962;-93
2023/03/10 01:04:04;;;;;;;;;;;;;;;11.86;68.04;98996.47;5071319;28;19998;-92
2023/03/10 01:06:29;;;;;;;;;;;;;;;11.82;67.71;99001.00;5076958;28;19921;-93
2023/03/10 01:08:54;;;;;;;;;;;;;;;11.56;69.43;98997.38;5079242;28;19912;-93
2023/03/10 01:11:21;;;;;;;;;;;;;;;11.71;68.03;99001.31;5076927;28;20972;-92
2023/03/10 01:13:47;;;;;;;;;;;;;;;11.58;68.43;98995.53;5102470;28;19967;-92
2023/03/10 01:16:12;;;;;;;;;;;;;;;11.52;68.22;98989.56;5085230;28;19908;-90
2023/03/10 01:18:38;;;;;;;;;;;;;;;11.47;68.67;98985.28;5091562;28;19912;-94
2023/03/10 01:21:03;;;;;;;;;;;;;;;11.35;68.83;98983.00;5070783;28;19917;-93
2023/03/10 01:23:29;;;;;;;;;;;;;;;11.33;68.99;98979.56;5070974;28;19913;-92
2023/03/10 01:25:54;;;;;;;;;;;;;;;11.37;68.54;98975.94;5069309;28;20313;-93
2023/03/10 01:28:20;;;;;;;;;;;;;;;11.17;69.11;98976.50;5083759;28;19916;-93
2023/03/10 01:30:47;;;;;;;;;;;;;;;11.16;69.18;98981.84;5085892;28;19913;-94
2023/03/10 01:33:13;;;;;;;;;;;;;;;11.06;69.32;98974.19;5085757;28;19908;-93
2023/03/10 01:35:39;;;;;;;;;;;;;;;11.15;68.76;98967.75;5080074;28;20401;-92
2023/03/10 01:38:05;;;;;;;;;;;;;;;11.18;68.91;98970.31;5072360;28;19916;-93
2023/03/10 01:40:30;;;;;;;;;;;;;;;11.30;68.08;98974.38;5070380;28;19916;-93
2023/03/10 01:43:14;;;;;;;;;;;;;;;11.14;68.50;98973.97;5070237;28;20391;-92
2023/03/10 01:45:39;;;;;;;;;;;;;;;10.91;68.69;98971.97;5069072;28;20388;-92
2023/03/10 01:48:04;;;;;;;;;;;;;;;10.84;69.01;98980.97;5069555;28;19916;-93
2023/03/10 01:50:30;;;;;;;;;;;;;;;10.78;69.16;98979.34;5071952;28;19997;-93
2023/03/10 01:52:57;;;;;;;;;;;;;;;10.87;68.79;98972.97;5072103;28;19916;-91
2023/03/10 01:55:42;;;;;;;;;;;;;;;10.87;68.72;98970.31;5072036;28;19966;-92
2023/03/10 01:58:09;;;;;;;;;;;;;;;10.52;69.39;98970.38;5073391;28;19916;-89
2023/03/10 02:00:35;;;;;;;;;;;;;;;10.58;69.04;98971.97;5072321;28;19920;-89
2023/03/10 02:03:06;;;;;;;;;;;;;;;10.59;68.93;98968.44;5073372;28;19998;-88
2023/03/10 02:05:32;;;;;;;;;;;;;;;10.57;69.29;98973.75;5056894;28;19913;-89
2023/03/10 02:07:58;;;;;;;;;;;;;;;10.59;69.28;98960.53;5053553;28;19912;-89
2023/03/10 02:10:25;;;;;;;;;;;;;;;10.65;69.55;98968.25;5057938;28;19995;-88
2023/03/10 02:12:50;;;;;;;;;;;;;;;10.75;69.13;98968.88;5072482;28;19916;-89
2023/03/10 02:15:15;;;;;;;;;;;;;;;10.77;69.39;98971.47;5073255;28;19912;-93
2023/03/10 02:17:41;;;;;;;;;;;;;;;10.86;69.04;98969.47;5072094;28;19916;-93
2023/03/10 02:20:06;;;;;;;;;;;;;;;10.83;68.93;98960.75;5072977;28;19913;-94
2023/03/10 02:22:32;;;;;;;;;;;;;;;10.82;68.65;98973.09;5073324;28;19959;-92
2023/03/10 02:25:12;;;;;;;;;;;;;;;10.76;68.71;98970.63;5071841;28;19985;-93
2023/03/10 02:27:38;;;;;;;;;;;;;;;10.67;68.91;98973.50;5071997;28;19913;-93
2023/03/10 02:30:10;;;;;;;;;;;;;;;10.51;69.39;98987.09;5071408;28;19935;-93
2023/03/10 02:32:37;;;;;;;;;;;;;;;10.30;70.31;98985.84;5072732;28;20379;-93
2023/03/10 02:35:03;;;;;;;;;;;;;;;10.55;69.76;98993.13;5071327;28;20632;-93
2023/03/10 02:37:30;;;;;;;;;;;;;;;10.54;69.39;98994.94;5088421;28;19916;-93
2023/03/10 02:39:55;;;;;;;;;;;;;;;10.41;69.46;98990.00;5072669;28;20008;-91
2023/03/10 02:42:23;;;;;;;;;;;;;;;10.43;69.58;98991.72;5072959;28;19957;-91
2023/03/10 02:44:49;;;;;;;;;;;;;;;10.40;69.30;98999.69;5073192;28;19995;-91
2023/03/10 02:47:15;;;;;;;;;;;;;;;10.20;70.45;98997.53;5088608;28;20062;-93
2023/03/10 02:49:40;;;;;;;;;;;;;;;9.93;71.83;98999.94;5072910;28;20344;-91
2023/03/10 02:52:08;;;;;;;;;;;;;;;9.99;72.03;99007.69;5072358;28;19919;-92
2023/03/10 02:54:34;;;;;;;;;;;;;;;10.21;71.03;99008.03;5072965;28;19947;-91
2023/03/10 02:56:59;;;;;;;;;;;;;;;10.23;70.13;99023.81;5071443;28;19947;-89
2023/03/10 02:59:24;;;;;;;;;;;;;;;10.15;70.22;99016.09;5072145;28;20060;-90
2023/03/10 03:01:50;;;;;;;;;;;;;;;10.14;71.06;99019.63;5071606;28;19916;-92
2023/03/10 03:04:15;;;;;;;;;;;;;;;9.91;72.89;99027.19;5072401;28;19919;-92
2023/03/10 03:06:40;;;;;;;;;;;;;;;9.65;75.01;99020.75;5072009;28;20760;-93
2023/03/10 03:09:06;;;;;;;;;;;;;;;9.86;74.24;99022.88;5072901;28;20014;-94
2023/03/10 03:11:31;;;;;;;;;;;;;;;9.89;73.69;99029.88;5087460;28;19919;-92
2023/03/10 03:13:56;;;;;;;;;;;;;;;9.76;75.04;99023.13;5070754;28;19912;-93
2023/03/10 03:16:22;;;;;;;;;;;;;;;9.46;76.70;99023.75;5071908;28;19954;-90
2023/03/10 03:18:48;;;;;;;;;;;;;;;9.50;77.28;99020.19;5071864;28;19979;-91
2023/03/10 03:21:16;;;;;;;;;;;;;;;9.40;77.48;99018.63;5071889;28;20386;-91
2023/03/10 03:23:43;;;;;;;;;;;;;;;9.54;77.86;99020.13;5071958;28;20435;-92
2023/03/10 03:26:13;;;;;;;;;;;;;;;9.74;77.04;99014.41;5072154;28;20384;-91
2023/03/10 03:28:38;;;;;;;;;;;;;;;9.89;75.58;99011.44;5072209;28;19916;-91
2023/03/10 03:31:03;;;;;;;;;;;;;;;9.82;75.83;99012.47;5071226;28;20033;-93
2023/03/10 03:33:29;;;;;;;;;;;;;;;9.83;75.09;99017.69;5071355;28;19920;-91
2023/03/10 03:35:54;;;;;;;;;;;;;;;9.93;75.05;99021.00;5066959;28;20814;-92
2023/03/10 03:38:19;;;;;;;;;;;;;;;9.89;74.38;99016.69;5054132;28;19916;-92
2023/03/10 03:40:45;;;;;;;;;;;;;;;9.98;74.10;99013.00;5051408;28;19970;-92
2023/03/10 03:43:11;;;;;;;;;;;;;;;10.07;73.66;99007.50;5051709;28;20406;-93
2023/03/10 03:45:36;;;;;;;;;;;;;;;9.98;73.60;99007.72;5056894;28;19912;-93
2023/03/10 03:48:02;;;;;;;;;;;;;;;9.98;73.85;99007.72;5071639;28;19923;-93
2023/03/10 03:50:27;;;;;;;;;;;;;;;9.96;73.69;99006.88;5086795;28;20034;-91
2023/03/10 03:52:52;;;;;;;;;;;;;;;10.01;73.58;99015.56;5070136;28;20416;-92
2023/03/10 03:55:18;;;;;;;;;;;;;;;9.79;73.68;99002.88;5071333;28;20306;-94
2023/03/10 03:57:44;;;;;;;;;;;;;;;9.59;74.98;98995.44;5087193;28;20002;-94
2023/03/10 04:00:11;;;;;;;;;;;;;;;9.73;74.28;99002.13;5078100;28;20309;-91
2023/03/10 04:02:37;;;;;;;;;;;;;;;9.72;74.63;99008.31;5086645;28;19971;-92
2023/03/10 04:05:03;;;;;;;;;;;;;;;9.64;75.75;99005.84;5071452;28;20382;-91
2023/03/10 04:07:29;;;;;;;;;;;;;;;9.79;74.66;99013.41;5071083;28;19916;-92
2023/03/10 04:09:55;;;;;;;;;;;;;;;9.87;74.99;99013.25;5085829;28;20432;-92
2023/03/10 04:12:20;;;;;;;;;;;;;;;9.97;73.89;99001.56;5070197;28;19963;-92
2023/03/10 04:14:45;;;;;;;;;;;;;;;9.93;73.63;98999.94;5070688;28;19912;-93
2023/03/10 04:17:11;;;;;;;;;;;;;;;10.04;73.22;98997.91;5069109;28;19919;-93
2023/03/10 04:19:36;;;;;;;;;;;;;;;9.74;74.45;99004.72;5068828;28;19919;-92
2023/03/10 04:22:01;;;;;;;;;;;;;;;9.85;74.03;99004.50;5065707;28;19920;-92
2023/03/10 04:24:27;;;;;;;;;;;;;;;9.74;73.96;99017.91;5055264;28;19916;-93
2023/03/10 04:26:52;;;;;;;;;;;;;;;9.55;74.86;99016.59;5069960;28;19920;-92
2023/03/10 04:29:17;;;;;;;;;;;;;;;9.36;76.37;99010.81;5061490;28;19920;-88
2023/03/10 04:31:43;;;;;;;;;;;;;;;9.09;76.81;99011.38;5067311;28;19948;-92
2023/03/10 04:34:10;;;;;;;;;;;;;;;9.15;77.56;99002.50;5048788;28;19913;-86
2023/03/10 04:36:36;;;;;;;;;;;;;;;9.26;76.76;99010.16;5050144;28;19913;-90
2023/03/10 04:39:01;;;;;;;;;;;;;;;9.34;77.05;99005.59;5049896;28;20015;-88
2023/03/10 04:41:27;;;;;;;;;;;;;;;9.54;76.53;99014.84;5050751;28;20062;-89
2023/03/10 04:43:52;;;;;;;;;;;;;;;9.52;76.30;99014.03;5067382;28;19921;-89
2023/03/10 04:46:17;;;;;;;;;;;;;;;9.62;75.71;99011.16;5068405;28;19916;-84
2023/03/10 04:48:43;;;;;;;;;;;;;;;9.71;75.60;99012.69;5069648;28;19923;-89
2023/03/10 04:51:10;;;;;;;;;;;;;;;9.81;74.69;99022.13;5060132;28;19913;-84
2023/03/10 04:53:36;;;;;;;;;;;;;;;9.58;76.49;99021.78;5059886;28;20404;-84
2023/03/10 04:56:03;;;;;;;;;;;;;;;9.41;76.65;99017.75;5069654;28;19920;-84
2023/03/10 04:58:28;;;;;;;;;;;;;;;9.64;76.26;99016.41;5068566;28;19943;-84
2023/03/10 05:00:54;;;;;;;;;;;;;;;9.51;76.40;99010.50;5070326;28;19912;-86
2023/03/10 05:03:19;;;;;;;;;;;;;;;9.58;75.91;99013.91;5070230;28;19913;-83
2023/03/10 05:05:44;;;;;;;;;;;;;;;9.42;77.75;99002.81;5070564;28;19912;-85
2023/03/10 05:08:10;;;;;;;;;;;;;;;9.65;76.27;99000.56;5070332;28;19916;-89
2023/03/10 05:10:38;;;;;;;;;;;;;;;9.77;75.85;99007.28;5070737;28;19909;-85
2023/03/10 05:13:03;;;;;;;;;;;;;;;9.62;76.49;99008.53;5070201;28;19916;-84
2023/03/10 05:15:29;;;;;;;;;;;;;;;9.67;76.84;99008.44;5070483;28;20347;-84
2023/03/10 05:17:54;;;;;;;;;;;;;;;9.61;76.90;99004.16;5069607;28;19941;-84
2023/03/10 05:20:19;;;;;;;;;;;;;;;9.52;77.98;99001.72;5071197;28;20421;-88
2023/03/10 05:22:45;;;;;;;;;;;;;;;9.81;76.79;99002.84;5075961;28;19917;-89
2023/03/10 05:25:10;;;;;;;;;;;;;;;10.18;74.86;99009.88;5074630;28;19959;-89
2023/03/10 05:27:36;;;;;;;;;;;;;;;10.09;75.27;98999.56;5078313;28;19935;-91
2023/03/10 05:30:03;;;;;;;;;;;;;;;10.17;75.24;99009.00;5080008;28;19991;-89
2023/03/10 05:32:29;;;;;;;;;;;;;;;10.12;74.93;99007.41;5078697;28;20471;-89
2023/03/10 05:34:56;;;;;;;;;;;;;;;10.17;75.30;99011.63;5075566;28;19912;-88
2023/03/10 05:37:21;;;;;;;;;;;;;;;10.33;74.09;99006.91;5081406;28;19920;-91
2023/03/10 05:39:47;;;;;;;;;;;;;;;10.20;74.15;99005.44;5090848;28;20351;-91
2023/03/10 05:42:12;;;;;;;;;;;;;;;10.18;74.60;99013.38;5081569;28;19912;-88
2023/03/10 05:44:37;;;;;;;;;;;;;;;10.20;74.54;99008.91;5089570;28;19928;-86
2023/03/10 05:47:03;;;;;;;;;;;;;;;10.21;75.22;99007.16;5097991;28;19909;-84
2023/03/10 05:49:29;;;;;;;;;;;;;;;10.20;75.12;99006.28;5096452;28;19908;-86
2023/03/10 05:51:55;;;;;;;;;;;;;;;10.19;75.49;99001.94;5074124;28;19916;-89
2023/03/10 05:54:20;;;;;;;;;;;;;;;10.12;75.85;98995.06;5072961;28;20326;-92
2023/03/10 05:56:45;;;;;;;;;;;;;;;10.18;76.03;99000.19;5073545;28;19973;-89
2023/03/10 05:59:11;;;;;;;;;;;;;;;10.31;75.63;98994.63;5072773;28;19916;-88
2023/03/10 06:01:37;;;;;;;;;;;;;;;10.41;75.57;98992.63;5072635;28;19916;-89
2023/03/10 06:04:02;;;;;;;;;;;;;;;10.61;74.56;98992.97;5073447;28;19912;-90
2023/03/10 06:06:27;;;;;;;;;;;;;;;10.79;74.49;98986.34;5070842;28;19912;-91
2023/03/10 06:08:53;;;;;;;;;;;;;;;10.87;74.54;98979.09;5072287;28;19974;-88
2023/03/10 06:11:19;;;;;;;;;;;;;;;11.15;74.27;98978.31;5072560;28;19919;-89
2023/03/10 06:13:44;;;;;;;;;;;;;;;11.35;73.52;98983.00;5073652;28;19912;-88
2023/03/10 06:16:10;;;;;;;;;;;;;;;11.47;73.30;98981.78;5072476;28;19940;-89
2023/03/10 06:18:35;;;;;;;;;;;;;;;11.79;71.72;98985.25;5073423;28;19920;-90
2023/03/10 06:21:05;;;;;;;;;;;;;;;11.82;71.64;98983.34;5069990;28;19969;-90
2023/03/10 06:23:30;;;;;;;;;;;;;;;11.84;71.70;98980.66;5064932;28;19920;-91
2023/03/10 06:26:00;;;;;;;;;;;;;;;12.07;71.39;98982.59;5071844;28;20382;-88
2023/03/10 06:28:26;;;;;;;;;;;;;;;12.06;71.22;98982.66;5073028;28;19916;-88
2023/03/10 06:30:55;;;;;;;;;;;;;;;12.25;71.05;98981.16;5072073;28;20386;-87
2023/03/10 06:33:21;;;;;;;;;;;;;;;12.33;71.53;98971.16;5072726;28;19985;-87
2023/03/10 06:35:46;;;;;;;;;;;;;;;12.49;71.63;98978.59;5072829;28;20354;-88
2023/03/10 06:38:12;;;;;;;;;;;;;;;12.64;70.85;98974.56;5070772;28;20350;-87
2023/03/10 06:40:38;;;;;;;;;;;;;;;12.92;69.72;98979.72;5071714;28;19913;-87
2023/03/10 06:43:03;;;;;;;;;;;;;;;13.02;69.73;98977.59;5072196;28;19913;-88
2023/03/10 06:45:28;;;;;;;;;;;;;;;13.28;69.34;98979.28;5072187;28;19923;-88
2023/03/10 06:47:54;;;;;;;;;;;;;;;13.46;68.50;98982.22;5072046;28;19923;-87
2023/03/10 06:50:19;;;;;;;;;;;;;;;13.63;67.74;98981.56;5073109;28;19971;-87
2023/03/10 06:52:45;;;;;;;;;;;;;;;13.69;67.78;98981.31;5072815;28;20455;-88
2023/03/10 06:55:12;;;;;;;;;;;;;;;13.70;67.88;98981.25;5072810;28;19916;-87
2023/03/10 06:57:38;;;;;;;;;;;;;;;13.82;67.98;98979.91;5072096;28;19920;-88
2023/03/10 07:00:04;;;;;;;;;;;;;;;13.68;67.77;98985.75;5072338;28;20022;-87
2023/03/10 07:02:29;;;;;;;;;;;;;;;13.70;68.27;98975.06;5072414;28;20350;-88
2023/03/10 07:04:54;;;;;;;;;;;;;;;13.71;68.61;98967.06;5072552;28;19912;-88
2023/03/10 07:07:20;;;;;;;;;;;;;;;13.86;67.52;98962.94;5072551;28;19912;-88
2023/03/10 07:09:45;;;;;;;;;;;;;;;14.13;65.85;98958.34;5072618;28;19962;-88
2023/03/10 07:12:10;;;;;;;;;;;;;;;14.38;64.75;98967.91;5072577;28;19919;-88
2023/03/10 07:14:36;;;;;;;;;;;;;;;14.67;63.65;98955.19;5070288;28;19912;-86
2023/03/10 07:17:01;;;;;;;;;;;;;;;14.76;62.25;98956.59;5072644;28;20306;-86
2023/03/10 07:19:26;;;;;;;;;;;;;;;14.63;63.20;98950.97;5072041;28;19913;-86
2023/03/10 07:21:52;;;;;;;;;;;;;;;14.46;63.28;98952.53;5072396;28;20431;-86
2023/03/10 07:24:18;;;;;;;;;;;;;;;14.88;62.01;98947.25;5071950;28;19912;-86
2023/03/10 07:26:43;;;;;;;;;;;;;;;15.17;60.40;98948.59;5071820;28;19961;-86
2023/03/10 07:29:09;;;;;;;;;;;;;;;15.53;59.66;98943.34;5071695;28;19920;-86
2023/03/10 07:31:35;;;;;;;;;;;;;;;15.38;60.29;98952.91;5071644;28;19919;-86
2023/03/10 07:34:00;;;;;;;;;;;;;;;15.65;56.59;98962.31;5071698;28;19913;-86
2023/03/10 07:36:26;;;;;;;;;;;;;;;15.86;55.84;98969.28;5071624;28;19916;-86
2023/03/10 07:38:51;;;;;;;;;;;;;;;15.97;56.07;98966.09;5071448;28;19919;-86
2023/03/10 07:41:18;;;;;;;;;;;;;;;15.98;55.95;98969.63;5071511;28;19912;-86
2023/03/10 07:43:43;;;;;;;;;;;;;;;16.37;53.07;98968.59;5071443;28;19916;-86
2023/03/10 07:46:11;;;;;;;;;;;;;;;16.22;52.40;98973.75;5071335;28;19916;-90
2023/03/10 07:48:36;;;;;;;;;;;;;;;16.42;51.76;98963.88;5071429;28;19951;-86
2023/03/10 07:51:02;;;;;;;;;;;;;;;16.64;52.06;98961.84;5071437;28;19955;-87
2023/03/10 07:53:27;;;;;;;;;;;;;;;16.75;50.95;98963.13;5071552;28;19912;-88
2023/03/10 07:55:53;;;;;;;;;;;;;;;16.67;51.76;98954.63;5071455;28;20412;-87
2023/03/10 07:58:19;;;;;;;;;;;;;;;16.73;52.38;98949.88;5071008;28;19984;-86
2023/03/10 08:00:44;;;;;;;;;;;;;;;16.56;53.25;98941.88;5072227;28;19912;-87
2023/03/10 08:03:09;;;;;;;;;;;;;;;16.50;51.33;98944.84;5071720;28;19912;-87
2023/03/10 08:05:38;;;;;;;;;;;;;;;16.40;53.71;98941.81;5071409;28;19920;-87
2023/03/10 08:08:03;;;;;;;;;;;;;;;16.28;55.62;98943.28;5071435;28;20378;-86
2023/03/10 08:10:29;;;;;;;;;;;;;;;16.42;54.81;98935.50;5071267;28;19912;-85
2023/03/10 08:12:54;;;;;;;;;;;;;;;16.69;54.01;98947.47;5070830;28;20290;-86
2023/03/10 08:15:19;;;;;;;;;;;;;;;16.77;54.43;98950.56;5071240;28;19970;-85
2023/03/10 08:17:45;;;;;;;;;;;;;;;16.75;54.50;98947.13;5071084;28;19912;-85
2023/03/10 08:20:10;;;;;;;;;;;;;;;16.76;54.93;98935.53;5070934;28;20011;-86
2023/03/10 08:22:35;;;;;;;;;;;;;;;16.45;55.00;98939.78;5071156;28;20386;-86
2023/03/10 08:25:01;;;;;;;;;;;;;;;16.79;54.63;98938.91;5071328;28;19920;-84
2023/03/10 08:27:26;;;;;;;;;;;;;;;16.71;54.39;98932.25;5070993;28;19913;-85
2023/03/10 08:29:51;;;;;;;;;;;;;;;16.41;54.80;98935.56;5070846;28;19916;-84
2023/03/10 08:32:17;;;;;;;;;;;;;;;16.14;54.93;98930.69;5071134;28;20006;-84
2023/03/10 08:34:43;;;;;;;;;;;;;;;16.23;55.29;98932.88;5071166;28;19928;-84
2023/03/10 08:37:08;;;;;;;;;;;;;;;16.37;54.67;98932.19;5071325;28;19958;-84
2023/03/10 08:39:34;;;;;;;;;;;;;;;16.51;55.02;98928.81;5070921;28;19912;-84
2023/03/10 08:41:59;;;;;;;;;;;;;;;16.52;55.75;98924.38;5070855;28;19936;-84
2023/03/10 08:44:25;;;;;;;;;;;;;;;16.70;57.70;98918.09;5071321;28;20350;-85
2023/03/10 08:46:50;;;;;;;;;;;;;;;16.55;58.20;98913.56;5070687;28;20345;-85
2023/03/10 08:49:17;;;;;;;;;;;;;;;16.85;57.32;98905.75;5069608;28;20382;-88
2023/03/10 08:51:43;;;;;;;;;;;;;;;16.75;57.32;98913.38;5068874;28;19967;-86
2023/03/10 08:54:10;;;;;;;;;;;;;;;17.04;56.79;98911.00;5070450;28;19944;-85
2023/03/10 08:56:35;;;;;;;;;;;;;;;16.95;56.97;98915.00;5070266;28;19919;-86
2023/03/10 08:59:01;;;;;;;;;;;;;;;16.80;57.85;98913.97;5070374;28;19920;-86
2023/03/10 09:01:30;;;;;;;;;;;;;;;16.86;55.12;98903.97;5072219;28;19935;-86
2023/03/10 09:03:56;;;;;;;;;;;;;;;16.89;54.59;98899.34;5074660;28;19920;-86
2023/03/10 09:06:22;;;;;;;;;;;;;;;16.98;54.24;98901.50;5074656;28;19912;-85
2023/03/10 09:08:49;;;;;;;;;;;;;;;17.27;53.95;98896.41;5074932;28;19919;-86
2023/03/10 09:11:19;;;;;;;;;;;;;;;17.49;53.35;98896.06;5074979;28;20242;-86
2023/03/10 09:13:44;;;;;;;;;;;;;;;17.72;53.49;98877.91;5074431;28;19978;-86
2023/03/10 09:16:10;;;;;;;;;;;;;;;17.58;52.69;98877.81;5074876;28;19913;-86
2023/03/10 09:18:35;;;;;;;;;;;;;;;17.55;50.87;98868.22;5074567;28;19912;-86
2023/03/10 09:21:00;;;;;;;;;;;;;;;17.79;51.30;98865.06;5074572;28;19923;-86
2023/03/10 09:23:26;;;;;;;;;;;;;;;17.59;51.51;98856.41;5074156;28;20348;-87
2023/03/10 09:25:51;;;;;;;;;;;;;;;17.70;49.65;98855.78;5074322;28;19919;-86
2023/03/10 09:28:16;;;;;;;;;;;;;;;17.67;49.85;98853.28;5074504;28;19963;-87
2023/03/10 09:30:42;;;;;;;;;;;;;;;17.74;49.99;98853.81;5074379;28;19912;-87
2023/03/10 09:33:12;;;;;;;;;;;;;;;18.12;48.22;98846.28;5074319;28;20397;-86
2023/03/10 09:35:38;;;;;;;;;;;;;;;18.46;48.35;98846.91;5074145;28;19920;-88
2023/03/10 09:38:04;;;;;;;;;;;;;;;18.45;48.42;98847.00;5074314;28;19985;-87
2023/03/10 09:40:30;;;;;;;;;;;;;;;18.46;47.96;98833.56;5073621;28;19918;-87
2023/03/10 09:43:00;;;;;;;;;;;;;;;18.11;50.18;98835.69;5074370;28;19920;-86
2023/03/10 09:45:25;;;;;;;;;;;;;;;18.11;49.84;98825.84;5073784;28;20341;-87
2023/03/10 09:48:06;;;;;;;;;;;;;;;18.16;50.22;98822.91;5074173;28;19919;-86
2023/03/10 09:50:33;;;;;;;;;;;;;;;18.31;50.38;98819.31;5073924;28;19919;-87
2023/03/10 09:53:06;;;;;;;;;;;;;;;18.08;50.11;98812.69;5073770;28;20000;-86
2023/03/10 09:55:36;;;;;;;;;;;;;;;18.16;50.52;98813.09;5073739;28;19912;-87
2023/03/10 09:58:02;;;;;;;;;;;;;;;18.38;50.95;98799.31;5073759;28;19913;-87
2023/03/10 10:00:31;;;;;;;;;;;;;;;18.67;49.65;98790.44;5074599;28;19912;-87
2023/03/10 10:03:12;;;;;;;;;;;;;;;18.38;49.95;98793.09;5073918;28;19919;-87
2023/03/10 10:05:38;;;;;;;;;;;;;;;18.63;50.12;98784.44;5065680;28;19916;-88
2023/03/10 10:08:10;;;;;;;;;;;;;;;18.55;50.13;98763.56;5071405;28;19995;-87
2023/03/10 10:10:37;;;;;;;;;;;;;;;18.57;51.80;98752.78;5062844;28;19916;-88
2023/03/10 10:13:10;;;;;;;;;;;;;;;18.82;51.12;98749.41;5088757;28;19904;-87
2023/03/10 10:15:38;;;;;;;;;;;;;;;18.79;50.83;98744.25;5092732;28;19905;-86
2023/03/10 10:18:22;;;;;;;;;;;;;;;18.91;49.08;98748.00;5091589;28;19978;-87
2023/03/10 10:20:50;;;;;;;;;;;;;;;19.01;50.58;98737.56;5072406;28;19963;-87
2023/03/10 10:23:15;;;;;;;;;;;;;;;19.01;49.51;98738.41;5070558;28;20018;-87
2023/03/10 10:25:40;;;;;;;;;;;;;;;19.29;49.46;98731.25;5069959;28;19999;-87
2023/03/10 10:28:13;;;;;;;;;;;;;;;19.52;49.32;98726.19;5069575;28;19916;-87
2023/03/10 10:30:39;;;;;;;;;;;;;;;19.64;47.79;98714.66;5071452;28;19923;-87
2023/03/10 10:33:11;;;;;;;;;;;;;;;19.79;46.94;98721.69;5065279;28;19950;-86
2023/03/10 10:35:39;;;;;;;;;;;;;;;19.78;47.49;98708.41;5067593;28;19916;-86
2023/03/10 10:38:08;;;;;;;;;;;;;;;19.87;47.77;98704.25;5066992;28;19948;-87
2023/03/10 10:40:35;;;;;;;;;;;;;;;20.28;46.59;98698.69;5067912;28;19920;-87
2023/03/10 10:43:04;;;;;;;;;;;;;;;20.35;46.67;98694.56;5082837;28;19928;-87
2023/03/10 10:45:36;;;;;;;;;;;;;;;20.27;46.73;98683.56;5071285;28;19908;-86
2023/03/10 10:48:02;;;;;;;;;;;;;;;20.24;46.71;98670.41;5070212;28;20322;-88
2023/03/10 10:50:29;;;;;;;;;;;;;;;20.27;47.23;98667.50;5067786;28;20377;-90
2023/03/10 10:53:12;;;;;;;;;;;;;;;20.32;46.59;98648.44;5071729;28;19919;-89
2023/03/10 10:55:39;;;;;;;;;;;;;;;20.15;47.95;98639.78;5072087;28;19912;-89
2023/03/10 10:58:05;;;;;;;;;;;;;;;20.02;48.21;98629.09;5072387;28;19957;-89
2023/03/10 11:00:32;;;;;;;;;;;;;;;20.25;47.14;98617.69;5070538;28;20568;-90
2023/03/10 11:02:57;;;;;;;;;;;;;;;20.29;47.50;98609.34;5072203;28;19916;-90
2023/03/10 11:05:29;;;;;;;;;;;;;;;20.32;47.08;98598.41;5071649;28;19981;-90
2023/03/10 11:07:55;;;;;;;;;;;;;;;20.56;46.68;98579.69;5071922;28;19946;-90
2023/03/10 11:10:25;;;;;;;;;;;;;;;20.99;46.24;98570.28;5071625;28;19947;-90
2023/03/10 11:13:06;;;;;;;;;;;;;;;21.46;45.86;98557.72;5071834;28;20039;-92
2023/03/10 11:15:52;;;;;;;;;;;;;;;21.70;47.05;98554.09;5071224;28;19923;-91
2023/03/10 11:18:39;;;;;;;;;;;;;;;21.73;44.82;98545.81;5071524;28;19912;-91
2023/03/10 11:21:04;;;;;;;;;;;;;;;22.04;46.40;98540.66;5071216;28;19918;-93
2023/03/10 11:23:35;;;;;;;;;;;;;;;22.24;45.03;98533.69;5069574;28;20348;-91
2023/03/10 11:26:01;;;;;;;;;;;;;;;22.27;43.82;98530.75;5071292;28;19916;-91
2023/03/10 11:28:40;;;;;;;;;;;;;;;22.41;44.32;98531.50;5071372;28;20385;-91
2023/03/10 11:31:09;;;;;;;;;;;;;;;22.18;45.39;98529.69;5071036;28;19916;-92
2023/03/10 11:33:40;;;;;;;;;;;;;;;22.23;47.58;98533.81;5071285;28;19951;-92
2023/03/10 11:36:15;;;;;;;;;;;;;;;22.50;45.03;98525.34;5071198;28;19912;-91
2023/03/10 11:38:45;;;;;;;;;;;;;;;22.38;43.34;98515.63;5070958;28;19912;-92
2023/03/10 11:41:22;;;;;;;;;;;;;;;22.27;42.93;98516.47;5071448;28;19991;-91
2023/03/10 11:43:56;;;;;;;;;;;;;;;22.29;44.52;98506.44;5071532;28;19935;-91
2023/03/10 11:46:28;;;;;;;;;;;;;;;22.15;46.00;98504.91;5071237;28;20330;-90
2023/03/10 11:49:06;;;;;;;;;;;;;;;21.90;43.95;98498.84;5070820;28;20442;-91
2023/03/10 11:51:36;;;;;;;;;;;;;;;22.01;45.80;98497.97;5071151;28;19912;-91
2023/03/10 11:54:18;;;;;;;;;;;;;;;22.09;44.95;98497.34;5071103;28;20378;-91
2023/03/10 11:56:44;;;;;;;;;;;;;;;21.73;46.82;98494.81;5071871;28;19919;-91
2023/03/10 11:59:20;;;;;;;;;;;;;;;21.52;46.16;98502.78;5071430;28;19956;-91
2023/03/10 12:01:51;;;;;;;;;;;;;;;21.83;46.41;98500.31;5071652;28;19961;-91
2023/03/10 12:04:38;;;;;;;;;;;;;;;21.71;45.34;98496.78;5070847;28;19948;-91
2023/03/10 12:07:20;;;;;;;;;;;;;;;21.34;46.73;98491.63;5070270;28;20352;-90
2023/03/10 12:09:53;;;;;;;;;;;;;;;21.31;45.36;98483.81;5071792;28;19908;-91
2023/03/10 12:12:30;;;;;;;;;;;;;;;21.35;46.31;98485.28;5070842;28;19912;-91
2023/03/10 12:14:57;;;;;;;;;;;;;;;21.03;45.87;98479.78;5071939;28;19916;-92
2023/03/10 12:17:23;;;;;;;;;;;;;;;20.78;48.14;98484.34;5070695;28;19912;-91
2023/03/10 12:20:16;;;;;;;;;;;;;;;20.74;48.49;98474.81;5070489;28;19973;-91
2023/03/10 12:22:50;;;;;;;;;;;;;;;20.52;49.37;98489.81;5070097;28;19921;-90
2023/03/10 12:25:28;;;;;;;;;;;;;;;20.38;48.30;98495.34;5070749;28;19923;-92
2023/03/10 12:28:12;;;;;;;;;;;;;;;20.24;49.26;98488.34;5069054;28;20352;-91
2023/03/10 12:30:46;;;;;;;;;;;;;;;20.17;49.52;98490.63;5070782;28;19912;-91
2023/03/10 12:33:36;;;;;;;;;;;;;;;20.10;49.66;98486.69;5071075;28;20004;-92
2023/03/10 12:36:20;;;;;;;;;;;;;;;19.78;50.78;98495.22;5070773;28;19916;-93
2023/03/10 12:38:58;;;;;;;;;;;;;;;19.56;51.23;98485.19;5070051;28;19924;-92
2023/03/10 12:41:26;;;;;;;;;;;;;;;19.60;50.75;98489.34;5069958;28;20014;-93
2023/03/10 12:43:51;;;;;;;;;;;;;;;19.57;51.70;98489.56;5070301;28;19919;-91
2023/03/10 12:46:23;;;;;;;;;;;;;;;19.61;52.16;98496.38;5071348;28;19924;-93
2023/03/10 12:48:52;;;;;;;;;;;;;;;19.58;51.46;98487.75;5070114;28;19913;-90